• Join FlightAware (Why Join?)
  • Login
  • US Flag 
04:33PM EDT


 

Airport Tracker/Info


-or-


 

Live Flight TrackerFlight Track Log ✈ UAL3767 ✈ 08-May-2013 ✈ KBTV - KORD

Flight Track Log - Related Links

Times and Time Zones

All times are in EDT time to prevent confusion due to time zone crossing. See the UAL3767 flight status page for this flight to view local times or setup timezone preferences in your user account.

Time Position Orientation Groundspeed Altitude Reporting Facility
EDT Latitude Longitude Course Direction KTS MPH feet Rate Location/Type
06:02AM 44.4061 -73.3003 258° West 258 297 6,100  Level Boston Center
06:03AM 44.3605 -73.7431 259° West  Level FlightAware Approximate
06:03AM 44.3886 -73.4103 257° West 287 330 9,100  Level Boston Center
06:04AM 44.3391 -73.8931 259° West  Level FlightAware Approximate
06:04AM 44.3731 -73.5147 258° West 301 346 11,300  Level Boston Center
06:05AM 44.3129 -74.0416 255° West  Level FlightAware Approximate
06:05AM 44.3531 -73.6392 257° West 328 377 13,700  Level Boston Center
06:06AM 44.2847 -74.1893 255° West  Level FlightAware Approximate
06:06AM 44.3306 -73.7839 258° West 344 396 16,000  Level Boston Center
06:07AM 44.2584 -74.3376 258° West  Level FlightAware Approximate
06:07AM 44.3100 -73.9225 258° West 358 412 18,100  Level Boston Center
06:08AM 44.2354 -74.4869 258° West  Level FlightAware Approximate
06:08AM 44.2875 -74.0642 258° West 363 418 20,000  Level Boston Center
06:09AM 44.2711 -74.1797 259° West 374 430 21,400 1,680 Climbing Boston Center
06:10AM 44.2411 -74.3556 257° West 381 438 23,400 1,740 Climbing Boston Center
06:11AM 44.2158 -74.5053 257° West 397 457 24,900 1,440 Climbing Boston Center
06:12AM 44.1897 -74.6639 257° West 409 471 26,300 1,320 Climbing Boston Center
06:13AM 44.1658 -74.8219 258° West 419 482 27,600 1,200 Climbing Boston Center
06:14AM 44.1394 -74.9831 257° West 424 488 28,700 1,020 Climbing Boston Center
06:15AM 44.1128 -75.1467 257° West 435 501 29,700 900 Climbing Boston Center
06:16AM 44.0856 -75.3189 258° West 445 512 30,600 900 Climbing Boston Center
06:17AM 44.0542 -75.4881 256° West 445 512 31,500 900 Climbing Boston Center
06:18AM 44.0267 -75.6569 257° West 445 512 32,400 900 Climbing Boston Center
06:19AM 43.9967 -75.8344 257° West 457 526 33,300 900 Climbing Boston Center
06:20AM 43.9664 -76.0028 256° West 462 532 34,200 900 Climbing Boston Center
06:21AM 43.9464 -76.1775 261° West 462 532 35,100 780 Climbing Boston Center
06:22AM 43.9300 -76.3525 263° West 467 537 35,800 420 Climbing Boston Center
06:23AM 43.9153 -76.5361 264° West 467 537 36,000 60 Climbing Boston Center
06:24AM 43.9000 -76.6667 261° West 480 552 36,000  Level Toronto Center
06:25AM 43.8667 -76.8333 255° West 490 564 36,000  Level Toronto Center
06:26AM 43.8500 -77.0167 263° West 480 552 36,000  Level Toronto Center
06:27AM 43.8333 -77.2000 263° West 480 552 36,000  Level Toronto Center
06:28AM 43.8167 -77.3833 263° West 480 552 36,000  Level Toronto Center
06:29AM 43.8000 -77.5833 263° West 480 552 36,000  Level Toronto Center
06:30AM 43.7833 -77.7667 263° West 480 552 36,000  Level Toronto Center
06:31AM 43.7500 -77.9500 256° West 480 552 36,000  Level Toronto Center
06:32AM 43.7333 -78.1333 263° West 480 552 36,000  Level Toronto Center
06:33AM 43.7167 -78.3167 263° West 480 552 36,000  Level Toronto Center
06:34AM 43.7167 -78.5000 270° West 490 564 36,000  Level Toronto Center
06:35AM 43.6833 -78.6833 256° West 490 564 36,000  Level Toronto Center
06:36AM 43.6667 -78.8667 263° West 490 564 36,000  Level Toronto Center
06:37AM 43.6500 -79.0500 263° West 490 564 36,000  Level Toronto Center
06:38AM 43.6333 -79.2333 263° West 490 564 36,000  Level Toronto Center
06:39AM 43.6167 -79.4333 264° West 480 552 36,000  Level Toronto Center
06:40AM 43.6000 -79.6167 263° West 490 564 36,000  Level Toronto Center
06:41AM 43.5833 -79.8000 263° West 490 564 36,000  Level Toronto Center
06:42AM 43.5500 -79.9833 256° West 480 552 36,000  Level Toronto Center
06:43AM 43.5333 -80.1667 263° West 480 552 36,000  Level Toronto Center
06:44AM 43.5167 -80.3500 263° West 480 552 36,000  Level Toronto Center
06:45AM 43.5000 -80.5333 263° West 480 552 36,000  Level Toronto Center
06:46AM 43.4833 -80.7167 263° West 480 552 36,000  Level Toronto Center
06:47AM 43.4500 -80.9000 256° West 480 552 36,000  Level Toronto Center
06:48AM 43.4333 -81.0833 263° West 480 552 36,000  Level Toronto Center
06:49AM 43.4167 -81.2667 263° West 470 541 36,000  Level Toronto Center
06:50AM 43.4000 -81.4167 261° West 470 541 36,000  Level Toronto Center
06:51AM 43.3333 -81.5833 241° Southwest 450 518 36,000  Level Toronto Center
06:52AM 43.2500 -81.6667 216° Southwest 430 495 36,000  Level Toronto Center
06:53AM 43.1500 -81.7833 220° Southwest 430 495 36,000  Level Toronto Center
06:54AM 43.0833 -81.9167 236° Southwest 450 518 36,000  Level Toronto Center
06:55AM 43.0833 -82.1000 270° West 460 529 36,000  Level Toronto Center
06:56AM 43.0667 -82.2833 263° West 470 541 36,000  Level Toronto Center
06:57AM 43.0500 -82.4667 263° West 460 529 36,000  Level Toronto Center
06:58AM 43.0500 -82.6167 270° West 460 529 36,000  Level Toronto Center
06:59AM 43.0461 -82.7592 268° West 462 532 36,000  Level Cleveland Center
07:00AM 43.0303 -82.9264 263° West 457 526 36,000  Level Cleveland Center
07:01AM 43.0183 -83.0964 265° West 457 526 36,000  Level Cleveland Center
07:02AM 43.0042 -83.2689 264° West 457 526 36,000  Level Cleveland Center
07:03AM 42.9917 -83.4414 264° West 462 532 36,000  Level Cleveland Center
07:04AM 42.9769 -83.6139 263° West 462 532 36,000  Level Cleveland Center
07:05AM 42.9639 -83.7836 264° West 462 532 36,000  Level Cleveland Center
07:06AM 42.9467 -83.9531 262° West 462 532 36,000  Level Cleveland Center
07:07AM 42.9289 -84.1222 262° West 462 532 36,000 -540 Level Cleveland Center
07:08AM 42.9114 -84.2883 262° West 457 526 35,000 -1,500 Descending Cleveland Center
07:09AM 42.9003 -84.4242 264° West 449 517 33,300 -1,620 Descending Chicago Center
07:10AM 42.8833 -84.5911 262° West 445 512 32,000 -660 Descending Chicago Center
07:11AM 42.8661 -84.7611 262° West 453 521 32,000  Level Chicago Center
07:12AM 42.8478 -84.9306 262° West 453 521 32,000  Level Chicago Center
07:13AM 42.8311 -85.0975 262° West 447 514 32,000 -240 Level Chicago Center
07:14AM 42.8119 -85.2675 261° West 453 521 31,600 -1,500 Descending Chicago Center
07:15AM 42.7931 -85.4411 262° West 461 531 29,000 -2,520 Descending Chicago Center
07:16AM 42.7675 -85.6028 258° West 441 507 26,500 -2,460 Descending Chicago Center
07:17AM 42.7389 -85.7633 256° West 434 499 24,000 -2,460 Descending Chicago Center
07:18AM 42.7092 -85.9228 256° West 433 498 21,500 -1,980 Descending Chicago Center
07:19AM 42.6819 -86.0767 257° West 422 486 20,000 -780 Descending Chicago Center
07:20AM 42.6494 -86.2519 256° West 403 464 20,000  Level Chicago Center
07:21AM 42.6222 -86.3958 256° West 394 453 20,000  Level Chicago Center
07:22AM 42.5950 -86.5422 256° West 399 459 20,000 -480 Level Chicago Center
07:23AM 42.5672 -86.6856 255° West 395 455 19,100 -1,440 Descending Chicago Center
07:24AM 42.5344 -86.8292 253° West 399 459 17,100 -2,040 Descending Chicago Center
07:25AM 42.4950 -86.9694 249° West 395 455 15,000 -2,040 Descending Chicago Center
07:26AM 42.4592 -87.0992 250° West 370 426 13,000 -1,980 Descending Chicago Center
07:27AM 42.4247 -87.2244 250° West 359 413 11,000 -1,500 Descending Chicago Center
07:28AM 42.3914 -87.3469 250° West 349 402 10,000 -540 Descending Chicago Center
07:29AM 42.3525 -87.4861 249° West 343 395 10,000  Level Chicago Center
07:30AM 42.2917 -87.5828 230° Southwest 342 394 10,000  Level Chicago Center
07:31AM 42.2158 -87.6642 218° Southwest 348 400 10,000  Level Chicago Center
07:32AM 42.1397 -87.7447 218° Southwest 348 400 10,000 -240 Level Chicago Center
07:32AM 42.1167 -87.7667 215° Southwest 303 349 9,700 -1,620 Descending Chicago TRACON
07:33AM 42.1000 -87.8667 257° West 286 329 8,000 -1,380 Descending Chicago TRACON
07:34AM 42.1000 -87.9667 270° West 274 315 7,000 -600 Descending Chicago TRACON
07:35AM 42.1000 -88.0500 270° West 211 243 7,000 -180 Level Chicago TRACON
07:36AM 42.0833 -88.1167 251° West 185 213 6,700 -900 Descending Chicago TRACON
07:37AM 42.0833 -88.1833 270° West 185 213 5,200 -1,260 Descending Chicago TRACON
07:38AM 42.0758 -88.2364 259° West 196 226 4,200 -600 Descending Chicago Center
07:39AM 42.0244 -88.2256 171° South 188 216 4,000 -120 Descending Chicago Center
07:40AM 41.9872 -88.1900 145° Southeast 195 224 4,000 -180 Level Chicago Center
07:41AM 41.9664 -88.1181 111° Southeast 173 199 3,700 -660 Descending Chicago Center
07:42AM 41.9667 -88.0667 90° East 172 198 2,900 -1,080 Descending Chicago TRACON